CSN5161 ZGHA-ZSWZ
Flight info
| Callsign | CSN5161 |
|---|---|
| Flight time | N/A |
| Altitude | 22600 |
| Route | PAT7W PATVO W227 OMKOB DCT ATMOX V171 SHR DCT KAGED KAGED1F |
| Aircraft | A320/M-SDE3FGHIRWY/LB1 |
Departure
| Time | 2026-04-30 14:52 |
|---|---|
| Airport | Changsha Huanghua International Airport (ZGHA) |
Arrival
| Time | N/A |
|---|---|
| Airport | Wenzhou Longwan International Airport (ZSWZ) |
| Time | Latitude | Longitude | Altitude | Speed | Heading |
|---|---|---|---|---|---|
| 2026-04-30 14:43 | 28.19738 | 113.21561 | 217 ft | 4 kts | 301° |
| 2026-04-30 14:44 | 28.19724 | 113.21587 | 222 ft | 4 kts | 300° |
| 2026-04-30 14:44 | 28.19710 | 113.21613 | 220 ft | 4 kts | 310° |
| 2026-04-30 14:44 | 28.19694 | 113.21629 | 219 ft | 4 kts | 327° |
| 2026-04-30 14:44 | 28.19670 | 113.21643 | 218 ft | 4 kts | 348° |
| 2026-04-30 14:45 | 28.19643 | 113.21645 | 214 ft | 4 kts | 1° |
| 2026-04-30 14:45 | 28.19629 | 113.21645 | 214 ft | 0 kts | 357° |
| 2026-04-30 14:46 | 28.19634 | 113.21645 | 214 ft | 2 kts | 357° |
| 2026-04-30 14:47 | 28.19638 | 113.21645 | 214 ft | 0 kts | 357° |
| 2026-04-30 14:47 | 28.19639 | 113.21645 | 216 ft | 1 kts | 357° |
| 2026-04-30 14:47 | 28.19650 | 113.21644 | 214 ft | 3 kts | 357° |
| 2026-04-30 14:47 | 28.19675 | 113.21643 | 214 ft | 4 kts | 358° |
| 2026-04-30 14:48 | 28.19713 | 113.21642 | 216 ft | 6 kts | 358° |
| 2026-04-30 14:48 | 28.19755 | 113.21665 | 219 ft | 8 kts | 55° |
| 2026-04-30 14:48 | 28.19780 | 113.21725 | 216 ft | 9 kts | 40° |
| 2026-04-30 14:48 | 28.19849 | 113.21732 | 218 ft | 11 kts | 356° |
| 2026-04-30 14:49 | 28.19933 | 113.21726 | 214 ft | 13 kts | 357° |
| 2026-04-30 14:49 | 28.20032 | 113.21720 | 214 ft | 15 kts | 357° |
| 2026-04-30 14:49 | 28.20145 | 113.21713 | 213 ft | 17 kts | 357° |
| 2026-04-30 14:49 | 28.20272 | 113.21706 | 214 ft | 19 kts | 357° |
| 2026-04-30 14:50 | 28.20522 | 113.21691 | 214 ft | 17 kts | 357° |
| 2026-04-30 14:50 | 28.20606 | 113.21759 | 219 ft | 17 kts | 82° |
| 2026-04-30 14:51 | 28.20546 | 113.21877 | 219 ft | 0 kts | 178° |
| 2026-04-30 14:51 | 28.20542 | 113.21877 | 218 ft | 1 kts | 177° |
| 2026-04-30 14:51 | 28.19904 | 113.21917 | 216 ft | 108 kts | 177° |
| 2026-04-30 14:52 | 28.18982 | 113.21975 | 221 ft | 155 kts | 176° |
| 2026-04-30 14:52 | 28.16615 | 113.22124 | 1080 ft | 173 kts | 176° |
| 2026-04-30 14:52 | 28.15422 | 113.22196 | 1582 ft | 179 kts | 176° |
| 2026-04-30 14:53 | 28.12644 | 113.22365 | 2324 ft | 213 kts | 176° |
| 2026-04-30 14:53 | 28.11166 | 113.22453 | 3101 ft | 213 kts | 175° |
| 2026-04-30 14:54 | 28.08690 | 113.23956 | 4516 ft | 217 kts | 112° |
| 2026-04-30 14:54 | 28.08321 | 113.27370 | 5924 ft | 224 kts | 94° |
| 2026-04-30 14:55 | 28.08112 | 113.30951 | 7283 ft | 232 kts | 94° |
| 2026-04-30 14:55 | 28.08000 | 113.32789 | 7939 ft | 236 kts | 94° |
| 2026-04-30 14:55 | 28.07739 | 113.36819 | 8632 ft | 279 kts | 95° |
| 2026-04-30 14:56 | 28.07435 | 113.41353 | 9898 ft | 295 kts | 95° |
| 2026-04-30 14:56 | 28.07098 | 113.46154 | 10594 ft | 329 kts | 96° |
| 2026-04-30 14:57 | 28.06824 | 113.48810 | 10724 ft | 351 kts | 97° |
| 2026-04-30 14:57 | 28.06096 | 113.54599 | 10961 ft | 391 kts | 98° |
| 2026-04-30 14:58 | 28.05280 | 113.60911 | 11500 ft | 415 kts | 98° |
| 2026-04-30 14:58 | 28.04870 | 113.64163 | 12011 ft | 420 kts | 98° |
| 2026-04-30 14:58 | 28.04302 | 113.70750 | 13006 ft | 428 kts | 87° |
| 2026-04-30 14:59 | 28.05055 | 113.77489 | 14015 ft | 436 kts | 80° |
| 2026-04-30 15:00 | 28.06313 | 113.87807 | 15324 ft | 446 kts | 81° |
| 2026-04-30 15:00 | 28.07156 | 113.94814 | 16148 ft | 452 kts | 81° |
| 2026-04-30 15:01 | 28.08010 | 114.01865 | 16937 ft | 457 kts | 81° |
| 2026-04-30 15:01 | 28.08440 | 114.05444 | 17326 ft | 460 kts | 81° |
| 2026-04-30 15:01 | 28.09316 | 114.12667 | 18040 ft | 466 kts | 81° |
| 2026-04-30 15:02 | 28.09760 | 114.16314 | 18382 ft | 469 kts | 81° |
| 2026-04-30 15:02 | 28.10205 | 114.19980 | 18680 ft | 472 kts | 81° |
| 2026-04-30 15:03 | 28.11535 | 114.31066 | 19557 ft | 479 kts | 81° |
| 2026-04-30 15:03 | 28.12457 | 114.38581 | 20136 ft | 484 kts | 80° |
| 2026-04-30 15:04 | 28.13553 | 114.46158 | 20653 ft | 490 kts | 78° |
| 2026-04-30 15:04 | 28.15270 | 114.57604 | 21403 ft | 497 kts | 79° |
| 2026-04-30 15:05 | 28.16931 | 114.69286 | 22079 ft | 503 kts | 79° |
| 2026-04-30 15:06 | 28.18032 | 114.77152 | 22483 ft | 508 kts | 79° |
| 2026-04-30 15:06 | 28.19134 | 114.85022 | 22734 ft | 510 kts | 79° |
| 2026-04-30 15:07 | 28.20250 | 114.92966 | 22730 ft | 510 kts | 79° |
| 2026-04-30 15:07 | 28.21359 | 115.00901 | 22736 ft | 510 kts | 79° |
| 2026-04-30 15:08 | 28.22470 | 115.08857 | 22733 ft | 511 kts | 79° |
| 2026-04-30 15:08 | 28.24118 | 115.20756 | 22739 ft | 511 kts | 79° |
| 2026-04-30 15:09 | 28.25203 | 115.28722 | 22732 ft | 511 kts | 79° |
| 2026-04-30 15:09 | 28.26279 | 115.36684 | 22718 ft | 511 kts | 79° |
| 2026-04-30 15:10 | 28.27353 | 115.44600 | 22716 ft | 511 kts | 79° |
| 2026-04-30 15:11 | 28.29420 | 115.60574 | 22715 ft | 512 kts | 81° |
| 2026-04-30 15:11 | 28.30274 | 115.68601 | 22715 ft | 513 kts | 81° |
| 2026-04-30 15:12 | 28.31550 | 115.80601 | 22713 ft | 513 kts | 81° |
| 2026-04-30 15:13 | 28.32439 | 115.88640 | 22707 ft | 513 kts | 81° |
| 2026-04-30 15:14 | 28.34210 | 116.04676 | 22718 ft | 514 kts | 81° |
| 2026-04-30 15:14 | 28.35518 | 116.16773 | 22715 ft | 515 kts | 81° |
| 2026-04-30 15:16 | 28.37668 | 116.36911 | 22712 ft | 516 kts | 81° |
| 2026-04-30 15:17 | 28.39382 | 116.53097 | 22716 ft | 516 kts | 81° |
| 2026-04-30 15:18 | 28.41490 | 116.73311 | 22715 ft | 517 kts | 81° |
| 2026-04-30 15:19 | 28.41718 | 116.85606 | 22716 ft | 520 kts | 88° |